Beloretsk, Russia
Current Conditions -  °F | °C
As of 9:00 AM on Monday 29 Dec 2014 (Local Time) from UWUU Reporting Station
Heavy Snow Heavy Snow  
Wind Chill:   Ceiling: 300
Heat Index: 23°   Visibility: 0.5mi
Dew Point: 21°   Wind: 20mph
Humidity: 93%   Direction: 150°SSE
Pressure: 29.8"   Gusts: 27mph
Location:  54.55°N, 56.32°E
Report Text: UWUU 290400Z 15009G12MPS 0800 R14L/1200VP1500U +SN OVC003M05/M06 Q1009 14811050 TEMPO 0500 +SN BLSN VV003 RMK QBB110QFE746/0995
Loading
Personal Weather Stations






























Interactive Weather Map New forecast layout! Learn more

10-Day Weather Forecast

Advertisements
Track Severe Weather on mobile